createdAt,value
2022-11-05T00:00:38.478Z,8.95
2022-11-05T00:03:24.853Z,8.92
2022-11-05T00:06:13.073Z,8.91
2022-11-05T00:09:00.334Z,8.93
2022-11-05T00:11:44.014Z,8.93
2022-11-05T00:14:30.961Z,8.86
2022-11-05T00:16:59.957Z,8.75
2022-11-05T00:19:28.440Z,8.69
2022-11-05T00:22:15.388Z,8.64
2022-11-05T00:25:01.367Z,8.54
2022-11-05T00:27:34.355Z,8.63
2022-11-05T00:30:07.408Z,8.61
2022-11-05T00:32:38.440Z,8.61
2022-11-05T00:35:08.361Z,8.69
2022-11-05T00:37:37.252Z,8.73
2022-11-05T00:40:07.078Z,8.75
2022-11-05T00:42:55.554Z,8.75
2022-11-05T00:45:24.016Z,8.78
2022-11-05T00:48:10.223Z,8.78
2022-11-05T00:50:38.874Z,8.79
2022-11-05T00:53:08.860Z,8.87
2022-11-05T00:55:39.750Z,8.88
2022-11-05T00:58:12.326Z,8.91
2022-11-05T01:00:44.211Z,8.90
2022-11-05T01:03:15.308Z,8.93
2022-11-05T01:05:45.921Z,8.92
2022-11-05T01:08:15.676Z,8.97
2022-11-05T01:10:45.793Z,8.94
2022-11-05T01:13:18.983Z,8.98
2022-11-05T01:15:48.540Z,8.76
2022-11-05T01:18:18.839Z,8.88
2022-11-05T01:20:48.053Z,8.96
2022-11-05T01:23:17.368Z,8.93
2022-11-05T01:25:46.180Z,8.91
2022-11-05T01:28:16.021Z,8.86
2022-11-05T01:30:44.961Z,8.88
2022-11-05T01:33:13.745Z,8.91
2022-11-05T01:35:42.821Z,8.92
2022-11-05T01:38:11.745Z,8.90
2022-11-05T01:40:43.926Z,8.89
2022-11-05T01:43:17.990Z,8.87
2022-11-05T01:45:49.244Z,8.81
2022-11-05T01:48:21.236Z,8.80
2022-11-05T01:50:57.021Z,8.69
2022-11-05T01:53:31.002Z,8.84
2022-11-05T01:56:03.436Z,8.88
2022-11-05T01:58:38.077Z,8.91
2022-11-05T02:01:07.611Z,8.90
2022-11-05T02:03:37.534Z,8.84
2022-11-05T02:06:09.310Z,8.88
2022-11-05T02:08:53.554Z,8.93
2022-11-05T02:11:22.861Z,8.97
2022-11-05T02:13:52.965Z,9.00
2022-11-05T02:16:33.799Z,9.01
2022-11-05T02:19:14.981Z,8.97
2022-11-05T02:22:23.276Z,9.00
2022-11-05T02:25:20.427Z,8.99
2022-11-05T02:28:19.493Z,8.77
2022-11-05T02:30:54.910Z,8.84
2022-11-05T02:33:34.323Z,8.90
2022-11-05T02:36:18.720Z,8.92
2022-11-05T02:38:59.944Z,8.85
2022-11-05T02:41:49.499Z,8.84
2022-11-05T02:44:28.818Z,8.84
2022-11-05T02:47:11.861Z,8.87
2022-11-05T02:49:49.873Z,8.88
2022-11-05T02:52:26.829Z,8.84
2022-11-05T02:55:00.103Z,8.95
2022-11-05T02:57:30.602Z,8.97
2022-11-05T03:00:02.729Z,8.92
2022-11-05T03:02:33.465Z,8.98
2022-11-05T03:05:04.300Z,8.96
2022-11-05T03:07:44.282Z,8.95
2022-11-05T03:10:29.720Z,8.98
2022-11-05T03:13:07.972Z,8.96
2022-11-05T03:15:50.059Z,8.94
2022-11-05T03:18:29.275Z,8.90
2022-11-05T03:21:05.619Z,8.91
2022-11-05T03:23:43.062Z,8.80
2022-11-05T03:26:17.755Z,8.78
2022-11-05T03:28:50.370Z,8.76
2022-11-05T03:31:21.064Z,8.70
2022-11-05T03:33:54.451Z,8.72
2022-11-05T03:36:28.525Z,8.54
2022-11-05T03:39:01.197Z,8.57
2022-11-05T03:41:32.742Z,8.56
2022-11-05T03:44:06.265Z,8.55
2022-11-05T03:46:39.669Z,8.52
2022-11-05T03:49:14.333Z,8.44
2022-11-05T03:51:47.518Z,8.32
2022-11-05T03:54:17.027Z,8.31
2022-11-05T03:56:55.993Z,8.30
2022-11-05T03:59:25.830Z,8.39
2022-11-05T04:01:56.348Z,8.46
2022-11-05T04:04:26.545Z,8.32
2022-11-05T04:07:13.133Z,8.30
2022-11-05T04:09:59.108Z,8.26
2022-11-05T04:12:45.878Z,8.27
2022-11-05T04:15:14.501Z,8.26
2022-11-05T04:17:42.088Z,8.19
2022-11-05T04:20:29.147Z,8.07
2022-11-05T04:23:19.713Z,8.03
2022-11-05T04:25:48.278Z,8.06
2022-11-05T04:28:17.680Z,8.16
2022-11-05T04:30:46.103Z,8.15
2022-11-05T04:33:17.104Z,8.20
2022-11-05T04:35:48.678Z,8.24
2022-11-05T04:38:19.493Z,8.32
2022-11-05T04:40:49.026Z,8.26
2022-11-05T04:43:20.678Z,8.38
2022-11-05T04:45:50.959Z,8.37
2022-11-05T04:48:19.421Z,8.36
2022-11-05T04:50:50.163Z,8.40
2022-11-05T04:53:18.575Z,8.38
2022-11-05T04:55:47.483Z,8.41
2022-11-05T04:58:16.417Z,8.41
2022-11-05T05:00:44.911Z,8.38
2022-11-05T05:03:14.327Z,8.37
2022-11-05T05:05:43.354Z,8.34
2022-11-05T05:08:13.609Z,8.33
2022-11-05T05:10:42.026Z,8.27
2022-11-05T05:13:12.849Z,8.23
2022-11-05T05:15:41.585Z,8.29
2022-11-05T05:18:10.186Z,8.28
2022-11-05T05:20:56.340Z,8.30
2022-11-05T05:23:26.175Z,8.29
2022-11-05T05:25:55.434Z,8.26
2022-11-05T05:28:23.844Z,8.27
2022-11-05T05:30:57.604Z,8.29
2022-11-05T05:33:27.181Z,8.32
2022-11-05T05:35:58.299Z,8.39
2022-11-05T05:38:28.727Z,8.34
2022-11-05T05:40:59.266Z,8.34
2022-11-05T05:43:30.587Z,8.37
2022-11-05T05:46:02.775Z,8.42
2022-11-05T05:48:31.695Z,8.40
2022-11-05T05:51:03.898Z,8.43
2022-11-05T05:53:34.250Z,8.40
2022-11-05T05:56:03.027Z,8.44
2022-11-05T05:58:33.966Z,8.43
2022-11-05T06:01:03.527Z,8.45
2022-11-05T06:03:32.000Z,8.48
2022-11-05T06:06:04.567Z,8.47
2022-11-05T06:08:34.807Z,8.46
2022-11-05T06:11:05.327Z,8.50
2022-11-05T06:13:33.929Z,8.52
2022-11-05T06:16:03.314Z,8.50
2022-11-05T06:18:32.272Z,8.51
2022-11-05T06:21:02.899Z,8.52
2022-11-05T06:23:32.156Z,8.51
2022-11-05T06:26:02.928Z,8.48
2022-11-05T06:28:31.764Z,8.47
2022-11-05T06:31:01.663Z,8.52
2022-11-05T06:33:30.662Z,8.54
2022-11-05T06:35:59.783Z,8.44
2022-11-05T06:38:29.857Z,8.50
2022-11-05T06:40:59.751Z,8.47
2022-11-05T06:43:30.804Z,8.36
2022-11-05T06:46:02.095Z,8.39
2022-11-05T06:48:30.712Z,8.40
2022-11-05T06:50:59.714Z,8.48
2022-11-05T06:53:28.892Z,8.42
2022-11-05T06:55:57.739Z,8.55
2022-11-05T06:58:26.754Z,8.60
2022-11-05T07:01:01.888Z,8.61
2022-11-05T07:03:30.854Z,8.56
2022-11-05T07:06:01.501Z,8.64
2022-11-05T07:08:32.882Z,8.70
2022-11-05T07:11:02.159Z,8.78
2022-11-05T07:13:30.726Z,8.85
2022-11-05T07:16:01.381Z,8.88
2022-11-05T07:18:29.765Z,8.91
2022-11-05T07:21:00.687Z,8.96
2022-11-05T07:23:29.584Z,8.96
2022-11-05T07:25:58.515Z,8.93
2022-11-05T07:28:27.036Z,8.97
2022-11-05T07:30:55.671Z,9.00
2022-11-05T07:33:26.426Z,9.02
2022-11-05T07:35:57.485Z,8.89
2022-11-05T07:38:26.791Z,9.07
2022-11-05T07:40:55.613Z,9.09
2022-11-05T07:43:25.423Z,9.10
2022-11-05T07:45:54.358Z,9.11
2022-11-05T07:48:23.946Z,9.16
2022-11-05T07:50:54.709Z,9.22
2022-11-05T07:53:24.414Z,9.26
2022-11-05T07:55:54.034Z,9.29
2022-11-05T07:58:23.602Z,9.18
2022-11-05T08:00:53.575Z,9.36
2022-11-05T08:03:23.132Z,9.38
2022-11-05T08:05:54.182Z,9.40
2022-11-05T08:08:23.475Z,9.44
2022-11-05T08:10:52.616Z,9.45
2022-11-05T08:13:21.036Z,9.48
2022-11-05T08:15:49.882Z,9.49
2022-11-05T08:18:19.211Z,9.54
2022-11-05T08:20:48.374Z,9.62
2022-11-05T08:23:18.625Z,9.71
2022-11-05T08:25:47.060Z,9.76
2022-11-05T08:28:16.014Z,9.79
2022-11-05T08:30:44.551Z,9.85
2022-11-05T08:33:14.856Z,9.91
2022-11-05T08:35:44.011Z,9.93
2022-11-05T08:38:14.682Z,9.90
2022-11-05T08:40:46.404Z,9.89
2022-11-05T08:43:15.612Z,9.88
2022-11-05T08:45:45.148Z,9.89
2022-11-05T08:48:15.463Z,9.86
2022-11-05T08:50:45.640Z,9.82
2022-11-05T08:53:15.571Z,9.89
2022-11-05T08:55:47.801Z,9.93
2022-11-05T08:58:17.514Z,9.98
2022-11-05T09:00:48.291Z,10.05
2022-11-05T09:03:17.959Z,10.15
2022-11-05T09:05:46.605Z,10.26
2022-11-05T09:08:16.748Z,10.28
2022-11-05T09:10:50.156Z,10.51
2022-11-05T09:13:20.115Z,10.67
2022-11-05T09:15:49.236Z,10.65
2022-11-05T09:18:19.410Z,10.66
2022-11-05T09:20:49.140Z,10.66
2022-11-05T09:23:18.840Z,10.65
2022-11-05T09:25:49.292Z,10.62
2022-11-05T09:28:21.801Z,10.66
2022-11-05T09:30:52.459Z,10.55
2022-11-05T09:33:24.427Z,10.57
2022-11-05T09:35:54.596Z,10.56
2022-11-05T09:38:23.710Z,10.54
2022-11-05T09:40:58.532Z,10.52
2022-11-05T09:43:32.186Z,10.63
2022-11-05T09:46:07.420Z,10.71
2022-11-05T09:48:39.250Z,10.78
2022-11-05T09:51:08.024Z,10.81
2022-11-05T09:53:42.569Z,10.79
2022-11-05T09:56:22.073Z,10.95
2022-11-05T09:58:56.293Z,10.99
2022-11-05T10:01:29.277Z,10.96
2022-11-05T10:04:02.562Z,10.95
2022-11-05T10:06:31.024Z,10.91
2022-11-05T10:09:07.449Z,10.88
2022-11-05T10:11:42.739Z,10.76
2022-11-05T10:14:18.021Z,10.81
2022-11-05T10:16:53.310Z,10.86
2022-11-05T10:19:25.636Z,10.72
2022-11-05T10:22:11.494Z,10.84
2022-11-05T10:24:43.876Z,10.80
2022-11-05T10:27:18.501Z,10.82
2022-11-05T10:29:48.467Z,10.81
2022-11-05T10:32:26.885Z,10.83
2022-11-05T10:34:57.391Z,10.85
2022-11-05T10:37:26.359Z,10.77
2022-11-05T10:39:55.913Z,10.85
2022-11-05T10:42:41.407Z,10.86
2022-11-05T10:45:23.652Z,10.86
2022-11-05T10:48:07.188Z,10.85
2022-11-05T10:50:35.774Z,10.95
2022-11-05T10:53:13.738Z,10.98
2022-11-05T10:55:44.834Z,11.06
2022-11-05T10:58:21.757Z,11.10
2022-11-05T11:01:06.263Z,11.10
2022-11-05T11:03:42.614Z,11.13
2022-11-05T11:06:22.130Z,11.18
2022-11-05T11:08:52.747Z,11.23
2022-11-05T11:11:31.248Z,11.30
2022-11-05T11:14:04.631Z,11.29
2022-11-05T11:16:39.888Z,11.31
2022-11-05T11:19:26.061Z,11.33
2022-11-05T11:22:28.241Z,11.31
2022-11-05T11:24:56.774Z,11.28
2022-11-05T11:27:29.422Z,11.28
2022-11-05T11:30:01.177Z,11.35
2022-11-05T11:32:35.615Z,11.41
2022-11-05T11:35:06.609Z,11.55
2022-11-05T11:37:42.381Z,11.54
2022-11-05T11:40:17.450Z,11.62
2022-11-05T11:42:48.939Z,11.68
2022-11-05T11:45:25.104Z,11.80
2022-11-05T11:47:53.950Z,11.87
2022-11-05T11:50:39.475Z,12.00
2022-11-05T11:53:23.644Z,12.07
2022-11-05T11:56:00.798Z,12.37
2022-11-05T11:58:45.244Z,12.50
2022-11-05T12:01:48.028Z,12.48
2022-11-05T12:04:37.448Z,12.48
2022-11-05T12:07:23.776Z,12.50
2022-11-05T12:10:19.257Z,12.57
2022-11-05T12:12:56.771Z,12.70
2022-11-05T12:15:45.449Z,12.99
2022-11-05T12:18:26.574Z,13.68
2022-11-05T12:21:07.211Z,14.24
2022-11-05T12:24:15.839Z,14.76
2022-11-05T12:26:56.822Z,14.93
2022-11-05T12:29:47.661Z,14.80
2022-11-05T12:32:52.808Z,14.72
2022-11-05T12:35:44.183Z,14.48
2022-11-05T12:38:28.007Z,14.52
2022-11-05T12:41:17.260Z,14.99
2022-11-05T12:44:00.494Z,15.59
2022-11-05T12:46:38.537Z,15.31
2022-11-05T12:49:31.449Z,14.96
2022-11-05T12:52:22.953Z,14.88
2022-11-05T12:55:03.684Z,15.22
2022-11-05T12:57:35.567Z,15.34
2022-11-05T13:00:11.069Z,15.04
2022-11-05T13:02:48.949Z,14.94
2022-11-05T13:05:21.027Z,15.43
2022-11-05T13:07:58.115Z,15.70
2022-11-05T13:10:32.289Z,15.87
2022-11-05T13:13:07.472Z,15.59
2022-11-05T13:15:40.982Z,15.82
2022-11-05T13:18:15.951Z,15.55
2022-11-05T13:20:50.696Z,15.23
2022-11-05T13:23:26.748Z,14.95
2022-11-05T13:26:00.683Z,14.66
2022-11-05T13:28:39.943Z,14.49
2022-11-05T13:31:14.517Z,14.39
2022-11-05T13:33:47.584Z,14.34
2022-11-05T13:36:39.433Z,14.32
2022-11-05T13:39:18.235Z,14.26
2022-11-05T13:42:01.118Z,14.18
2022-11-05T13:45:04.822Z,14.00
2022-11-05T13:47:50.614Z,13.73
2022-11-05T13:50:46.198Z,13.60
2022-11-05T13:53:39.642Z,13.43
2022-11-05T13:56:23.399Z,13.40
2022-11-05T13:59:04.156Z,13.34
2022-11-05T14:01:45.703Z,13.31
2022-11-05T14:04:28.534Z,13.20
2022-11-05T14:07:11.573Z,13.17
2022-11-05T14:09:41.346Z,13.12
2022-11-05T14:12:22.783Z,13.06
2022-11-05T14:14:58.913Z,12.92
2022-11-05T14:17:33.396Z,12.90
2022-11-05T14:20:27.686Z,12.90
2022-11-05T14:23:37.851Z,12.78
2022-11-05T14:26:23.002Z,12.67
2022-11-05T14:29:08.194Z,12.73
2022-11-05T14:32:09.220Z,12.66
2022-11-05T14:34:48.458Z,12.58
2022-11-05T14:37:29.999Z,12.53
2022-11-05T14:40:24.709Z,12.43
2022-11-05T14:42:57.473Z,12.44
2022-11-05T14:45:30.661Z,12.43
2022-11-05T14:48:01.578Z,12.35
2022-11-05T14:50:38.420Z,12.35
2022-11-05T14:53:27.745Z,12.35
2022-11-05T14:56:01.541Z,12.31
2022-11-05T14:58:36.698Z,12.24
2022-11-05T15:01:08.792Z,12.25
2022-11-05T15:04:03.595Z,12.21
2022-11-05T15:06:35.570Z,12.15
2022-11-05T15:09:28.211Z,12.10
2022-11-05T15:12:09.329Z,12.07
2022-11-05T15:14:42.743Z,11.99
2022-11-05T15:17:18.748Z,12.00
2022-11-05T15:19:48.651Z,11.99
2022-11-05T15:22:30.491Z,11.99
2022-11-05T15:25:00.530Z,11.96
2022-11-05T15:27:45.982Z,11.97
2022-11-05T15:30:22.868Z,11.92
2022-11-05T15:32:51.642Z,11.83
2022-11-05T15:35:27.083Z,11.78
2022-11-05T15:38:01.989Z,11.76
2022-11-05T15:40:33.523Z,11.65
2022-11-05T15:43:09.898Z,11.62
2022-11-05T15:45:40.136Z,11.57
2022-11-05T15:48:16.981Z,11.54
2022-11-05T15:50:46.679Z,11.49
2022-11-05T15:53:44.324Z,11.50
2022-11-05T15:56:15.989Z,11.47
2022-11-05T15:58:48.654Z,11.43
2022-11-05T16:01:28.321Z,11.40
2022-11-05T16:04:07.069Z,11.45
2022-11-05T16:06:41.209Z,11.40
2022-11-05T16:09:22.884Z,11.43
2022-11-05T16:12:12.690Z,11.42
2022-11-05T16:14:42.317Z,11.34
2022-11-05T16:17:24.091Z,11.43
2022-11-05T16:19:53.657Z,11.25
2022-11-05T16:22:23.528Z,11.39
2022-11-05T16:24:52.051Z,11.40
2022-11-05T16:27:23.317Z,11.41
2022-11-05T16:29:54.271Z,11.39
2022-11-05T16:32:30.768Z,11.38
2022-11-05T16:35:02.048Z,11.35
2022-11-05T16:37:36.597Z,11.29
2022-11-05T16:40:14.227Z,11.11
2022-11-05T16:42:42.957Z,11.20
2022-11-05T16:45:15.422Z,11.16
2022-11-05T16:47:46.977Z,11.09
2022-11-05T16:50:22.973Z,11.09
2022-11-05T16:52:52.391Z,11.03
2022-11-05T16:55:22.140Z,11.02
2022-11-05T16:57:54.607Z,11.05
2022-11-05T17:00:24.419Z,11.06
2022-11-05T17:02:55.205Z,10.98
2022-11-05T17:05:26.142Z,11.04
2022-11-05T17:07:54.878Z,11.08
2022-11-05T17:10:25.163Z,11.04
2022-11-05T17:12:54.232Z,11.07
2022-11-05T17:15:26.034Z,11.07
2022-11-05T17:17:56.933Z,10.98
2022-11-05T17:20:36.709Z,11.08
2022-11-05T17:23:10.766Z,11.05
2022-11-05T17:25:39.754Z,11.01
2022-11-05T17:28:09.996Z,10.94
2022-11-05T17:30:41.446Z,10.93
2022-11-05T17:33:12.967Z,10.91
2022-11-05T17:35:42.927Z,10.87
2022-11-05T17:38:12.023Z,10.85
2022-11-05T17:40:41.165Z,10.82
2022-11-05T17:43:10.693Z,10.80
2022-11-05T17:45:44.122Z,10.84
2022-11-05T17:48:14.675Z,10.86
2022-11-05T17:50:44.138Z,10.84
2022-11-05T17:53:15.133Z,10.83
2022-11-05T17:55:45.308Z,10.78
2022-11-05T17:58:15.418Z,10.77
2022-11-05T18:00:49.122Z,10.75
2022-11-05T18:03:18.895Z,10.72
2022-11-05T18:05:47.804Z,10.69
2022-11-05T18:08:16.213Z,10.70
2022-11-05T18:10:45.437Z,10.68
2022-11-05T18:13:14.170Z,10.69
2022-11-05T18:15:44.111Z,10.68
2022-11-05T18:18:12.523Z,10.53
2022-11-05T18:20:44.093Z,10.66
2022-11-05T18:23:13.610Z,10.62
2022-11-05T18:25:42.685Z,10.64
2022-11-05T18:28:11.866Z,10.58
2022-11-05T18:30:40.975Z,10.57
2022-11-05T18:33:10.171Z,10.55
2022-11-05T18:35:44.611Z,10.53
2022-11-05T18:38:13.595Z,10.50
2022-11-05T18:40:42.897Z,10.54
2022-11-05T18:43:11.927Z,10.55
2022-11-05T18:45:41.531Z,10.53
2022-11-05T18:48:11.271Z,10.52
2022-11-05T18:50:41.969Z,10.51
2022-11-05T18:53:10.453Z,10.51
2022-11-05T18:55:40.318Z,10.38
2022-11-05T18:58:09.062Z,10.50
2022-11-05T19:00:40.650Z,10.52
2022-11-05T19:03:09.563Z,10.49
2022-11-05T19:05:38.671Z,10.47
2022-11-05T19:08:08.606Z,10.45
2022-11-05T19:10:41.151Z,10.41
2022-11-05T19:13:10.190Z,10.47
2022-11-05T19:15:42.526Z,10.44
2022-11-05T19:18:12.089Z,10.41
2022-11-05T19:20:40.813Z,10.40
2022-11-05T19:23:10.572Z,10.39
2022-11-05T19:25:39.881Z,10.39
2022-11-05T19:28:09.167Z,10.32
2022-11-05T19:30:38.835Z,10.28
2022-11-05T19:33:07.291Z,10.31
2022-11-05T19:35:40.849Z,10.27
2022-11-05T19:38:11.813Z,10.23
2022-11-05T19:40:40.338Z,10.17
2022-11-05T19:43:09.376Z,10.11
2022-11-05T19:45:44.736Z,10.09
2022-11-05T19:48:19.141Z,10.08
2022-11-05T19:50:48.777Z,10.00
2022-11-05T19:53:18.602Z,9.98
2022-11-05T19:55:47.598Z,10.00
2022-11-05T19:58:17.476Z,9.79
2022-11-05T20:00:46.561Z,9.86
2022-11-05T20:03:15.498Z,9.75
2022-11-05T20:05:44.321Z,9.71
2022-11-05T20:08:14.019Z,9.72
2022-11-05T20:10:44.117Z,9.67
2022-11-05T20:13:18.550Z,9.54
2022-11-05T20:15:49.267Z,9.50
2022-11-05T20:18:18.832Z,9.56
2022-11-05T20:20:48.444Z,9.59
2022-11-05T20:23:16.837Z,9.62
2022-11-05T20:25:47.254Z,9.64
2022-11-05T20:28:15.797Z,9.65
2022-11-05T20:30:44.718Z,9.66
2022-11-05T20:33:13.645Z,9.67
2022-11-05T20:35:42.826Z,9.59
2022-11-05T20:38:11.610Z,9.60
2022-11-05T20:40:40.529Z,9.58
2022-11-05T20:43:10.812Z,9.59
2022-11-05T20:45:39.677Z,9.54
2022-11-05T20:48:08.158Z,9.51
2022-11-05T20:50:40.916Z,9.44
2022-11-05T20:53:09.673Z,9.47
2022-11-05T20:55:43.024Z,9.48
2022-11-05T20:58:14.224Z,9.45
2022-11-05T21:00:49.645Z,9.36
2022-11-05T21:03:19.020Z,9.51
2022-11-05T21:05:47.635Z,9.53
2022-11-05T21:08:16.192Z,9.53
2022-11-05T21:10:51.046Z,9.48
2022-11-05T21:13:21.735Z,9.34
2022-11-05T21:15:52.040Z,9.37
2022-11-05T21:18:22.496Z,9.37
2022-11-05T21:20:52.704Z,9.38
2022-11-05T21:23:21.398Z,9.43
2022-11-05T21:25:50.550Z,9.44
2022-11-05T21:28:18.927Z,9.44
2022-11-05T21:30:49.763Z,9.42
2022-11-05T21:33:20.016Z,9.46
2022-11-05T21:35:49.571Z,9.44
2022-11-05T21:38:18.750Z,9.43
2022-11-05T21:40:48.158Z,9.43
2022-11-05T21:43:17.787Z,9.39
2022-11-05T21:45:46.583Z,9.37
2022-11-05T21:48:16.427Z,9.38
2022-11-05T21:51:02.218Z,9.34
2022-11-05T21:53:48.787Z,9.28
2022-11-05T21:56:37.115Z,9.27
2022-11-05T21:59:24.304Z,9.27
2022-11-05T22:02:02.032Z,9.22
2022-11-05T22:04:33.207Z,9.19
2022-11-05T22:07:02.676Z,9.16
2022-11-05T22:09:31.237Z,9.17
2022-11-05T22:12:00.585Z,9.14
2022-11-05T22:14:30.039Z,9.07
2022-11-05T22:16:59.586Z,8.92
2022-11-05T22:19:28.234Z,8.91
2022-11-05T22:21:58.060Z,8.97
2022-11-05T22:24:28.001Z,8.94
2022-11-05T22:26:56.790Z,8.91
2022-11-05T22:29:25.642Z,8.88
2022-11-05T22:31:54.123Z,8.85
2022-11-05T22:34:23.078Z,8.80
2022-11-05T22:36:51.838Z,8.75
2022-11-05T22:39:22.498Z,8.74
2022-11-05T22:41:54.664Z,8.70
2022-11-05T22:44:24.429Z,8.61
2022-11-05T22:46:53.527Z,8.60
2022-11-05T22:49:22.440Z,8.58
2022-11-05T22:51:52.190Z,8.57
2022-11-05T22:54:21.932Z,8.59
2022-11-05T22:56:53.058Z,8.59
2022-11-05T22:59:21.527Z,8.55
2022-11-05T23:01:50.834Z,8.55
2022-11-05T23:04:19.881Z,8.41
2022-11-05T23:07:06.119Z,8.49
2022-11-05T23:09:54.030Z,8.51
2022-11-05T23:12:31.776Z,8.51
2022-11-05T23:15:02.766Z,8.51
2022-11-05T23:17:48.640Z,8.56
2022-11-05T23:20:37.891Z,8.44
2022-11-05T23:23:25.195Z,8.38
2022-11-05T23:25:59.040Z,8.38
2022-11-05T23:28:27.701Z,8.17
2022-11-05T23:31:10.452Z,8.30
2022-11-05T23:33:38.881Z,8.25
2022-11-05T23:36:25.589Z,8.22
2022-11-05T23:38:54.499Z,8.15
2022-11-05T23:41:41.802Z,8.12
2022-11-05T23:44:28.499Z,8.08
2022-11-05T23:47:14.501Z,8.05
2022-11-05T23:49:43.691Z,8.01
2022-11-05T23:52:12.607Z,7.90
2022-11-05T23:54:41.068Z,7.83
2022-11-05T23:57:11.683Z,7.79
2022-11-05T23:59:40.558Z,7.72
